Neosho, MO (64850)

6:03 PM CDT on May 27, 2015 (GMT -0500)
Marina del Rey | | Change Station
CLOSE
Current Station
Personal Weather Station
Location: Neosho, MO
Elevation: 1188 ft
Nearby Weather Stations

Elev 1188 ft 36.88 °N, 94.35 °W | Updated 10 seconds ago

Partly Cloudy
Partly Cloudy
82.4 °F
Feels Like 85 °F
N
0.0
Wind Variable Wind from NE
Gusts 2.0 mph

Today
High -- | Low -- °F
--% Chance of Precip.
Yesterday
High -- | Low -- °F
Precip. -- in
6:01 AM 8:27 PM
Waxing Gibbous, 71% visible
Pressure 30.07 in
Visibility 10.0 miles
Clouds Clear
Heat Index 85 °F
Dew Point 68 °F
Humidity 61%
Rainfall 0.02 in
Snow Depth Not available.
UV 4 out of 12
Pollen 7.40 out of 12
Air Quality Not available.
Flu Activity Sporadic
METAR KHFJ 272215Z AUTO 00000KT 10SM CLR 27/18 A3007 RMK AO2 LTG DSNT SE

More Conditions Fewer Conditions

Pressure 30.07 in
Visibility 10.0 miles
Clouds Clear
Heat Index 85 °F
Dew Point 68 °F
Humidity 61%
Rainfall 0.02 in
Snow Depth Not available.
UV 4 out of 12
Pollen 7.40 out of 12
Air Quality Not available.
Flu Activity Sporadic
METAR KHFJ 272215Z AUTO 00000KT 10SM CLR 27/18 A3007 RMK AO2 LTG DSNT SE

More Conditions Fewer Conditions

10-Day Weather Forecast

Almanac

Astronomy

May. 27, 2015 Rise Set
Actual Time
Civil Twilight
Nautical Twilight
Astronomical Twilight
Moon
Length of Visible Light
Length of Day
Tomorrow will be .
, % of the Moon is Illuminated

Today's Extremes

State Highs State Lows

Community

WunderPhotos

Upload Photos

1,824,815 photos uploaded!

WunderBlogs® & News

Nearby

Air Quality

  Air Quality AQ Index Pollutant
Not available.

Snow Depth

Station Depth Elevation

Earthquake Activity

City Distance Mag. Time & Date
Minimum magnitude displayed is 2.5.

Coastal Water Temperatures

Place Temperature

Stations

Nearby Weather Stations

Station Location Temp. Windchill Dew Point Humidity Wind Precip. Elev Updated Type